sensor_id;sensor_type;location;lat;lon;timestamp;P1;durP1;ratioP1;P2;durP2;ratioP2
32333;SDS011;18810;53.040;8.850;2023-12-20T00:01:22;17.33;;;3.42;;
32333;SDS011;18810;53.040;8.850;2023-12-20T00:03:48;12.43;;;3.17;;
32333;SDS011;18810;53.040;8.850;2023-12-20T00:06:13;22.23;;;4.65;;
32333;SDS011;18810;53.040;8.850;2023-12-20T00:08:39;17.75;;;3.67;;
32333;SDS011;18810;53.040;8.850;2023-12-20T00:11:05;14.27;;;2.92;;
32333;SDS011;18810;53.040;8.850;2023-12-20T00:13:30;10.93;;;2.90;;
32333;SDS011;18810;53.040;8.850;2023-12-20T00:15:56;18.20;;;3.22;;
32333;SDS011;18810;53.040;8.850;2023-12-20T00:18:22;23.05;;;3.28;;
32333;SDS011;18810;53.040;8.850;2023-12-20T00:20:48;11.50;;;3.50;;
32333;SDS011;18810;53.040;8.850;2023-12-20T00:23:14;17.08;;;3.50;;
32333;SDS011;18810;53.040;8.850;2023-12-20T00:25:40;18.55;;;3.58;;
32333;SDS011;18810;53.040;8.850;2023-12-20T00:28:06;14.05;;;3.17;;
32333;SDS011;18810;53.040;8.850;2023-12-20T00:30:31;13.88;;;3.25;;
32333;SDS011;18810;53.040;8.850;2023-12-20T00:32:57;16.92;;;3.20;;
32333;SDS011;18810;53.040;8.850;2023-12-20T00:35:23;17.45;;;4.20;;
32333;SDS011;18810;53.040;8.850;2023-12-20T00:37:49;19.05;;;3.50;;
32333;SDS011;18810;53.040;8.850;2023-12-20T00:40:15;16.15;;;3.45;;
32333;SDS011;18810;53.040;8.850;2023-12-20T00:42:41;16.77;;;4.38;;
32333;SDS011;18810;53.040;8.850;2023-12-20T00:45:07;18.42;;;3.60;;
32333;SDS011;18810;53.040;8.850;2023-12-20T00:47:33;16.02;;;4.20;;
32333;SDS011;18810;53.040;8.850;2023-12-20T00:49:59;14.82;;;3.85;;
32333;SDS011;18810;53.040;8.850;2023-12-20T00:52:25;27.38;;;4.57;;
32333;SDS011;18810;53.040;8.850;2023-12-20T00:54:50;12.70;;;5.15;;
32333;SDS011;18810;53.040;8.850;2023-12-20T00:57:17;22.75;;;5.00;;
32333;SDS011;18810;53.040;8.850;2023-12-20T00:59:43;16.90;;;4.32;;
32333;SDS011;18810;53.040;8.850;2023-12-20T01:02:08;13.27;;;3.22;;
32333;SDS011;18810;53.040;8.850;2023-12-20T01:04:35;18.85;;;3.42;;
32333;SDS011;18810;53.040;8.850;2023-12-20T01:07:00;18.48;;;4.28;;
32333;SDS011;18810;53.040;8.850;2023-12-20T01:09:27;15.18;;;3.55;;
32333;SDS011;18810;53.040;8.850;2023-12-20T01:11:53;17.25;;;3.60;;
32333;SDS011;18810;53.040;8.850;2023-12-20T01:14:18;16.52;;;3.08;;
32333;SDS011;18810;53.040;8.850;2023-12-20T01:16:44;18.48;;;3.85;;
32333;SDS011;18810;53.040;8.850;2023-12-20T01:19:10;17.00;;;3.33;;
32333;SDS011;18810;53.040;8.850;2023-12-20T01:21:36;21.40;;;3.35;;
32333;SDS011;18810;53.040;8.850;2023-12-20T01:24:02;17.35;;;3.83;;
32333;SDS011;18810;53.040;8.850;2023-12-20T01:26:27;23.55;;;3.88;;
32333;SDS011;18810;53.040;8.850;2023-12-20T01:28:53;16.17;;;3.50;;
32333;SDS011;18810;53.040;8.850;2023-12-20T01:31:19;15.70;;;3.28;;
32333;SDS011;18810;53.040;8.850;2023-12-20T01:33:45;22.83;;;4.38;;
32333;SDS011;18810;53.040;8.850;2023-12-20T01:36:11;22.38;;;4.50;;
32333;SDS011;18810;53.040;8.850;2023-12-20T01:38:36;12.77;;;3.38;;
32333;SDS011;18810;53.040;8.850;2023-12-20T01:41:02;18.27;;;4.03;;
32333;SDS011;18810;53.040;8.850;2023-12-20T01:43:29;15.20;;;3.95;;
32333;SDS011;18810;53.040;8.850;2023-12-20T01:45:58;14.90;;;3.70;;
32333;SDS011;18810;53.040;8.850;2023-12-20T01:48:24;17.63;;;3.92;;
32333;SDS011;18810;53.040;8.850;2023-12-20T01:50:51;17.10;;;3.85;;
32333;SDS011;18810;53.040;8.850;2023-12-20T01:53:18;11.88;;;2.95;;
32333;SDS011;18810;53.040;8.850;2023-12-20T01:55:47;13.67;;;3.00;;
32333;SDS011;18810;53.040;8.850;2023-12-20T01:58:14;13.52;;;3.20;;
32333;SDS011;18810;53.040;8.850;2023-12-20T02:00:40;19.00;;;3.63;;
32333;SDS011;18810;53.040;8.850;2023-12-20T02:03:06;21.15;;;3.90;;
32333;SDS011;18810;53.040;8.850;2023-12-20T02:05:33;21.58;;;3.35;;
32333;SDS011;18810;53.040;8.850;2023-12-20T02:08:01;14.35;;;3.15;;
32333;SDS011;18810;53.040;8.850;2023-12-20T02:10:26;19.23;;;3.15;;
32333;SDS011;18810;53.040;8.850;2023-12-20T02:12:54;17.08;;;3.40;;
32333;SDS011;18810;53.040;8.850;2023-12-20T02:15:20;21.20;;;3.30;;
32333;SDS011;18810;53.040;8.850;2023-12-20T02:17:46;20.48;;;3.72;;
32333;SDS011;18810;53.040;8.850;2023-12-20T02:20:13;19.38;;;3.17;;
32333;SDS011;18810;53.040;8.850;2023-12-20T02:22:39;15.57;;;3.20;;
32333;SDS011;18810;53.040;8.850;2023-12-20T02:25:05;14.02;;;3.40;;
32333;SDS011;18810;53.040;8.850;2023-12-20T02:27:31;17.90;;;3.60;;
32333;SDS011;18810;53.040;8.850;2023-12-20T02:29:57;12.85;;;2.92;;
32333;SDS011;18810;53.040;8.850;2023-12-20T02:32:22;15.20;;;3.38;;
32333;SDS011;18810;53.040;8.850;2023-12-20T02:34:52;19.50;;;3.60;;
32333;SDS011;18810;53.040;8.850;2023-12-20T02:37:18;15.07;;;3.78;;
32333;SDS011;18810;53.040;8.850;2023-12-20T02:39:44;13.52;;;3.63;;
32333;SDS011;18810;53.040;8.850;2023-12-20T02:42:10;13.07;;;4.00;;
32333;SDS011;18810;53.040;8.850;2023-12-20T02:44:36;19.42;;;4.13;;
32333;SDS011;18810;53.040;8.850;2023-12-20T02:47:02;13.30;;;2.83;;
32333;SDS011;18810;53.040;8.850;2023-12-20T02:49:28;14.05;;;3.60;;
32333;SDS011;18810;53.040;8.850;2023-12-20T02:51:53;25.02;;;3.70;;
32333;SDS011;18810;53.040;8.850;2023-12-20T02:54:19;26.38;;;5.47;;
32333;SDS011;18810;53.040;8.850;2023-12-20T02:56:45;17.05;;;3.55;;
32333;SDS011;18810;53.040;8.850;2023-12-20T02:59:11;13.40;;;3.80;;
32333;SDS011;18810;53.040;8.850;2023-12-20T03:01:46;19.10;;;4.13;;
32333;SDS011;18810;53.040;8.850;2023-12-20T03:04:11;14.88;;;3.60;;
32333;SDS011;18810;53.040;8.850;2023-12-20T03:06:38;15.88;;;4.32;;
32333;SDS011;18810;53.040;8.850;2023-12-20T03:09:03;21.02;;;4.97;;
32333;SDS011;18810;53.040;8.850;2023-12-20T03:11:29;21.38;;;3.85;;
32333;SDS011;18810;53.040;8.850;2023-12-20T03:13:56;16.67;;;3.95;;
32333;SDS011;18810;53.040;8.850;2023-12-20T03:16:22;24.05;;;5.07;;
32333;SDS011;18810;53.040;8.850;2023-12-20T03:18:48;19.52;;;3.72;;
32333;SDS011;18810;53.040;8.850;2023-12-20T03:21:14;20.00;;;3.88;;
32333;SDS011;18810;53.040;8.850;2023-12-20T03:23:40;15.57;;;3.63;;
32333;SDS011;18810;53.040;8.850;2023-12-20T03:26:09;20.08;;;4.32;;
32333;SDS011;18810;53.040;8.850;2023-12-20T03:28:35;14.73;;;4.13;;
32333;SDS011;18810;53.040;8.850;2023-12-20T03:31:01;14.00;;;3.33;;
32333;SDS011;18810;53.040;8.850;2023-12-20T03:33:28;15.77;;;3.97;;
32333;SDS011;18810;53.040;8.850;2023-12-20T03:35:54;17.85;;;4.28;;
32333;SDS011;18810;53.040;8.850;2023-12-20T03:38:20;16.15;;;4.18;;
32333;SDS011;18810;53.040;8.850;2023-12-20T03:40:46;15.93;;;4.85;;
32333;SDS011;18810;53.040;8.850;2023-12-20T03:43:12;21.95;;;5.40;;
32333;SDS011;18810;53.040;8.850;2023-12-20T03:45:38;24.05;;;6.75;;
32333;SDS011;18810;53.040;8.850;2023-12-20T03:48:04;18.30;;;5.00;;
32333;SDS011;18810;53.040;8.850;2023-12-20T03:50:30;20.92;;;5.80;;
32333;SDS011;18810;53.040;8.850;2023-12-20T03:52:56;21.58;;;5.60;;
32333;SDS011;18810;53.040;8.850;2023-12-20T03:55:22;19.77;;;5.72;;
32333;SDS011;18810;53.040;8.850;2023-12-20T03:57:48;23.55;;;5.28;;
32333;SDS011;18810;53.040;8.850;2023-12-20T04:00:14;26.05;;;6.13;;
32333;SDS011;18810;53.040;8.850;2023-12-20T04:02:40;23.67;;;5.68;;
32333;SDS011;18810;53.040;8.850;2023-12-20T04:05:07;19.67;;;5.20;;
32333;SDS011;18810;53.040;8.850;2023-12-20T04:07:33;19.08;;;5.60;;
32333;SDS011;18810;53.040;8.850;2023-12-20T04:09:59;20.25;;;5.50;;
32333;SDS011;18810;53.040;8.850;2023-12-20T04:12:26;26.48;;;6.80;;
32333;SDS011;18810;53.040;8.850;2023-12-20T04:14:53;20.80;;;6.80;;
32333;SDS011;18810;53.040;8.850;2023-12-20T04:17:19;21.95;;;6.40;;
32333;SDS011;18810;53.040;8.850;2023-12-20T04:19:47;23.50;;;6.50;;
32333;SDS011;18810;53.040;8.850;2023-12-20T04:22:13;23.25;;;6.05;;
32333;SDS011;18810;53.040;8.850;2023-12-20T04:24:39;22.75;;;6.00;;
32333;SDS011;18810;53.040;8.850;2023-12-20T04:27:07;15.77;;;5.57;;
32333;SDS011;18810;53.040;8.850;2023-12-20T04:29:33;10.57;;;5.15;;
32333;SDS011;18810;53.040;8.850;2023-12-20T04:31:59;17.02;;;5.22;;
32333;SDS011;18810;53.040;8.850;2023-12-20T04:34:25;23.05;;;6.35;;
32333;SDS011;18810;53.040;8.850;2023-12-20T04:36:51;22.60;;;5.85;;
32333;SDS011;18810;53.040;8.850;2023-12-20T04:39:17;14.60;;;6.25;;
32333;SDS011;18810;53.040;8.850;2023-12-20T04:41:43;16.75;;;5.60;;
32333;SDS011;18810;53.040;8.850;2023-12-20T04:44:09;20.52;;;5.47;;
32333;SDS011;18810;53.040;8.850;2023-12-20T04:46:34;11.98;;;5.70;;
32333;SDS011;18810;53.040;8.850;2023-12-20T04:49:00;20.83;;;6.63;;
32333;SDS011;18810;53.040;8.850;2023-12-20T04:51:26;13.48;;;6.43;;
32333;SDS011;18810;53.040;8.850;2023-12-20T04:53:52;16.75;;;6.10;;
32333;SDS011;18810;53.040;8.850;2023-12-20T04:56:18;20.77;;;6.53;;
32333;SDS011;18810;53.040;8.850;2023-12-20T04:58:44;21.27;;;7.10;;
32333;SDS011;18810;53.040;8.850;2023-12-20T05:01:10;20.65;;;6.10;;
32333;SDS011;18810;53.040;8.850;2023-12-20T05:03:36;29.08;;;6.82;;
32333;SDS011;18810;53.040;8.850;2023-12-20T05:06:02;21.60;;;6.28;;
32333;SDS011;18810;53.040;8.850;2023-12-20T05:08:28;21.30;;;6.50;;
32333;SDS011;18810;53.040;8.850;2023-12-20T05:10:54;26.05;;;6.45;;
32333;SDS011;18810;53.040;8.850;2023-12-20T05:13:20;25.35;;;7.25;;
32333;SDS011;18810;53.040;8.850;2023-12-20T05:15:46;23.40;;;5.40;;
32333;SDS011;18810;53.040;8.850;2023-12-20T05:18:12;24.27;;;7.40;;
32333;SDS011;18810;53.040;8.850;2023-12-20T05:20:38;23.00;;;6.97;;
32333;SDS011;18810;53.040;8.850;2023-12-20T05:23:04;27.45;;;6.82;;
32333;SDS011;18810;53.040;8.850;2023-12-20T05:25:30;25.02;;;6.03;;
32333;SDS011;18810;53.040;8.850;2023-12-20T05:27:56;22.48;;;6.05;;
32333;SDS011;18810;53.040;8.850;2023-12-20T05:30:21;23.80;;;5.63;;
32333;SDS011;18810;53.040;8.850;2023-12-20T05:32:47;31.35;;;6.50;;
32333;SDS011;18810;53.040;8.850;2023-12-20T05:35:13;24.73;;;6.63;;
32333;SDS011;18810;53.040;8.850;2023-12-20T05:37:39;25.63;;;6.75;;
32333;SDS011;18810;53.040;8.850;2023-12-20T05:40:05;26.80;;;7.65;;
32333;SDS011;18810;53.040;8.850;2023-12-20T05:42:31;26.85;;;6.70;;
32333;SDS011;18810;53.040;8.850;2023-12-20T05:44:57;30.52;;;6.93;;
32333;SDS011;18810;53.040;8.850;2023-12-20T05:47:22;24.58;;;6.50;;
32333;SDS011;18810;53.040;8.850;2023-12-20T05:49:48;28.17;;;6.60;;
32333;SDS011;18810;53.040;8.850;2023-12-20T05:52:15;30.38;;;7.00;;
32333;SDS011;18810;53.040;8.850;2023-12-20T05:54:40;25.95;;;5.90;;
32333;SDS011;18810;53.040;8.850;2023-12-20T05:57:06;25.58;;;7.53;;
32333;SDS011;18810;53.040;8.850;2023-12-20T05:59:32;25.13;;;5.78;;
32333;SDS011;18810;53.040;8.850;2023-12-20T06:01:57;19.63;;;5.78;;
32333;SDS011;18810;53.040;8.850;2023-12-20T06:04:23;17.75;;;6.15;;
32333;SDS011;18810;53.040;8.850;2023-12-20T06:06:49;34.22;;;6.63;;
32333;SDS011;18810;53.040;8.850;2023-12-20T06:09:15;25.70;;;6.20;;
32333;SDS011;18810;53.040;8.850;2023-12-20T06:11:40;24.70;;;6.63;;
32333;SDS011;18810;53.040;8.850;2023-12-20T06:14:07;22.38;;;5.07;;
32333;SDS011;18810;53.040;8.850;2023-12-20T06:16:33;28.45;;;5.85;;
32333;SDS011;18810;53.040;8.850;2023-12-20T06:18:59;28.30;;;6.13;;
32333;SDS011;18810;53.040;8.850;2023-12-20T06:21:24;27.92;;;6.60;;
32333;SDS011;18810;53.040;8.850;2023-12-20T06:23:50;26.08;;;6.22;;
32333;SDS011;18810;53.040;8.850;2023-12-20T06:26:16;22.20;;;6.20;;
32333;SDS011;18810;53.040;8.850;2023-12-20T06:28:41;23.23;;;6.30;;
32333;SDS011;18810;53.040;8.850;2023-12-20T06:31:07;23.40;;;6.03;;
32333;SDS011;18810;53.040;8.850;2023-12-20T06:33:33;36.08;;;7.15;;
32333;SDS011;18810;53.040;8.850;2023-12-20T06:35:59;23.30;;;6.55;;
32333;SDS011;18810;53.040;8.850;2023-12-20T06:38:26;32.92;;;9.00;;
32333;SDS011;18810;53.040;8.850;2023-12-20T06:40:52;28.58;;;5.80;;
32333;SDS011;18810;53.040;8.850;2023-12-20T06:43:17;20.02;;;6.47;;
32333;SDS011;18810;53.040;8.850;2023-12-20T06:45:43;20.23;;;5.63;;
32333;SDS011;18810;53.040;8.850;2023-12-20T06:48:09;28.25;;;6.40;;
32333;SDS011;18810;53.040;8.850;2023-12-20T06:50:37;19.23;;;5.88;;
32333;SDS011;18810;53.040;8.850;2023-12-20T06:53:05;28.95;;;7.13;;
32333;SDS011;18810;53.040;8.850;2023-12-20T06:55:32;23.48;;;6.47;;
32333;SDS011;18810;53.040;8.850;2023-12-20T06:58:00;25.00;;;5.57;;
32333;SDS011;18810;53.040;8.850;2023-12-20T07:00:26;18.10;;;5.53;;
32333;SDS011;18810;53.040;8.850;2023-12-20T07:02:52;22.25;;;6.18;;
32333;SDS011;18810;53.040;8.850;2023-12-20T07:05:17;31.13;;;8.35;;
32333;SDS011;18810;53.040;8.850;2023-12-20T07:07:45;25.38;;;6.35;;
32333;SDS011;18810;53.040;8.850;2023-12-20T07:10:12;26.70;;;6.10;;
32333;SDS011;18810;53.040;8.850;2023-12-20T07:12:38;27.42;;;6.22;;
32333;SDS011;18810;53.040;8.850;2023-12-20T07:15:03;26.27;;;6.97;;
32333;SDS011;18810;53.040;8.850;2023-12-20T07:17:30;23.20;;;6.28;;
32333;SDS011;18810;53.040;8.850;2023-12-20T07:19:58;22.73;;;5.95;;
32333;SDS011;18810;53.040;8.850;2023-12-20T07:22:24;21.92;;;5.72;;
32333;SDS011;18810;53.040;8.850;2023-12-20T07:24:49;26.77;;;8.00;;
32333;SDS011;18810;53.040;8.850;2023-12-20T07:27:17;16.73;;;6.07;;
32333;SDS011;18810;53.040;8.850;2023-12-20T07:29:43;25.63;;;6.25;;
32333;SDS011;18810;53.040;8.850;2023-12-20T07:32:08;28.98;;;6.53;;
32333;SDS011;18810;53.040;8.850;2023-12-20T07:34:34;26.17;;;6.80;;
32333;SDS011;18810;53.040;8.850;2023-12-20T07:37:00;21.45;;;6.13;;
32333;SDS011;18810;53.040;8.850;2023-12-20T07:39:25;30.20;;;6.63;;
32333;SDS011;18810;53.040;8.850;2023-12-20T07:41:51;23.60;;;6.32;;
32333;SDS011;18810;53.040;8.850;2023-12-20T07:44:17;30.75;;;5.90;;
32333;SDS011;18810;53.040;8.850;2023-12-20T07:46:42;24.27;;;6.25;;
32333;SDS011;18810;53.040;8.850;2023-12-20T07:49:08;28.13;;;6.28;;
32333;SDS011;18810;53.040;8.850;2023-12-20T07:51:35;20.80;;;5.93;;
32333;SDS011;18810;53.040;8.850;2023-12-20T07:54:00;30.80;;;6.50;;
32333;SDS011;18810;53.040;8.850;2023-12-20T07:56:26;27.65;;;6.18;;
32333;SDS011;18810;53.040;8.850;2023-12-20T07:58:52;24.55;;;6.45;;
32333;SDS011;18810;53.040;8.850;2023-12-20T08:01:18;22.05;;;5.03;;
32333;SDS011;18810;53.040;8.850;2023-12-20T08:03:43;24.92;;;5.90;;
32333;SDS011;18810;53.040;8.850;2023-12-20T08:06:09;34.70;;;6.93;;
32333;SDS011;18810;53.040;8.850;2023-12-20T08:08:35;27.63;;;6.45;;
32333;SDS011;18810;53.040;8.850;2023-12-20T08:11:00;24.05;;;6.45;;
32333;SDS011;18810;53.040;8.850;2023-12-20T08:13:27;19.55;;;6.13;;
32333;SDS011;18810;53.040;8.850;2023-12-20T08:15:53;28.88;;;6.63;;
32333;SDS011;18810;53.040;8.850;2023-12-20T08:18:20;19.77;;;5.43;;
32333;SDS011;18810;53.040;8.850;2023-12-20T08:20:46;23.80;;;5.75;;
32333;SDS011;18810;53.040;8.850;2023-12-20T08:23:13;23.55;;;5.22;;
32333;SDS011;18810;53.040;8.850;2023-12-20T08:25:39;29.90;;;6.47;;
32333;SDS011;18810;53.040;8.850;2023-12-20T08:28:04;15.93;;;5.55;;
32333;SDS011;18810;53.040;8.850;2023-12-20T08:30:30;21.52;;;6.80;;
32333;SDS011;18810;53.040;8.850;2023-12-20T08:32:59;17.50;;;6.63;;
32333;SDS011;18810;53.040;8.850;2023-12-20T08:35:25;24.85;;;6.35;;
32333;SDS011;18810;53.040;8.850;2023-12-20T08:37:51;20.48;;;5.88;;
32333;SDS011;18810;53.040;8.850;2023-12-20T08:40:16;22.70;;;5.85;;
32333;SDS011;18810;53.040;8.850;2023-12-20T08:42:42;23.70;;;6.07;;
32333;SDS011;18810;53.040;8.850;2023-12-20T08:45:09;15.75;;;5.47;;
32333;SDS011;18810;53.040;8.850;2023-12-20T08:47:35;25.05;;;5.55;;
32333;SDS011;18810;53.040;8.850;2023-12-20T08:50:00;25.88;;;5.85;;
32333;SDS011;18810;53.040;8.850;2023-12-20T08:52:27;23.33;;;5.20;;
32333;SDS011;18810;53.040;8.850;2023-12-20T08:54:54;18.10;;;5.80;;
32333;SDS011;18810;53.040;8.850;2023-12-20T08:57:20;22.95;;;5.75;;
32333;SDS011;18810;53.040;8.850;2023-12-20T08:59:49;21.45;;;4.97;;
32333;SDS011;18810;53.040;8.850;2023-12-20T09:02:18;18.17;;;5.15;;
32333;SDS011;18810;53.040;8.850;2023-12-20T09:04:44;17.80;;;5.70;;
32333;SDS011;18810;53.040;8.850;2023-12-20T09:07:25;20.00;;;5.57;;
32333;SDS011;18810;53.040;8.850;2023-12-20T09:09:52;19.95;;;5.10;;
32333;SDS011;18810;53.040;8.850;2023-12-20T09:12:18;28.85;;;5.95;;
32333;SDS011;18810;53.040;8.850;2023-12-20T09:14:48;22.42;;;5.28;;
32333;SDS011;18810;53.040;8.850;2023-12-20T09:17:15;21.63;;;5.68;;
32333;SDS011;18810;53.040;8.850;2023-12-20T09:19:41;15.93;;;5.43;;
32333;SDS011;18810;53.040;8.850;2023-12-20T09:22:09;20.52;;;5.22;;
32333;SDS011;18810;53.040;8.850;2023-12-20T09:24:34;22.80;;;5.30;;
32333;SDS011;18810;53.040;8.850;2023-12-20T09:27:00;25.88;;;6.53;;
32333;SDS011;18810;53.040;8.850;2023-12-20T09:29:26;23.17;;;6.68;;
32333;SDS011;18810;53.040;8.850;2023-12-20T09:31:52;21.95;;;6.00;;
32333;SDS011;18810;53.040;8.850;2023-12-20T09:34:18;20.33;;;5.07;;
32333;SDS011;18810;53.040;8.850;2023-12-20T09:36:43;22.42;;;5.60;;
32333;SDS011;18810;53.040;8.850;2023-12-20T09:39:16;26.27;;;6.57;;
32333;SDS011;18810;53.040;8.850;2023-12-20T09:41:59;22.23;;;5.65;;
32333;SDS011;18810;53.040;8.850;2023-12-20T09:44:27;26.83;;;5.95;;
32333;SDS011;18810;53.040;8.850;2023-12-20T09:46:54;19.25;;;5.38;;
32333;SDS011;18810;53.040;8.850;2023-12-20T09:49:21;25.33;;;6.28;;
32333;SDS011;18810;53.040;8.850;2023-12-20T09:51:48;16.77;;;5.65;;
32333;SDS011;18810;53.040;8.850;2023-12-20T09:54:16;33.10;;;7.85;;
32333;SDS011;18810;53.040;8.850;2023-12-20T09:56:43;12.23;;;3.13;;
32333;SDS011;18810;53.040;8.850;2023-12-20T09:59:09;13.82;;;2.97;;
32333;SDS011;18810;53.040;8.850;2023-12-20T10:01:35;12.48;;;3.20;;
32333;SDS011;18810;53.040;8.850;2023-12-20T10:04:05;9.85;;;2.33;;
32333;SDS011;18810;53.040;8.850;2023-12-20T10:06:35;5.63;;;1.80;;
32333;SDS011;18810;53.040;8.850;2023-12-20T10:09:01;5.78;;;1.92;;
32333;SDS011;18810;53.040;8.850;2023-12-20T10:11:27;2.92;;;1.30;;
32333;SDS011;18810;53.040;8.850;2023-12-20T10:13:58;5.45;;;1.38;;
32333;SDS011;18810;53.040;8.850;2023-12-20T10:16:26;3.55;;;1.10;;
32333;SDS011;18810;53.040;8.850;2023-12-20T10:18:55;3.72;;;1.25;;
32333;SDS011;18810;53.040;8.850;2023-12-20T10:21:24;3.70;;;1.58;;
32333;SDS011;18810;53.040;8.850;2023-12-20T10:23:54;2.20;;;1.02;;
32333;SDS011;18810;53.040;8.850;2023-12-20T10:26:30;3.28;;;1.40;;
32333;SDS011;18810;53.040;8.850;2023-12-20T10:28:56;3.85;;;1.25;;
32333;SDS011;18810;53.040;8.850;2023-12-20T10:31:32;4.70;;;0.95;;
32333;SDS011;18810;53.040;8.850;2023-12-20T10:34:00;3.28;;;1.25;;
32333;SDS011;18810;53.040;8.850;2023-12-20T10:36:28;3.22;;;1.30;;
32333;SDS011;18810;53.040;8.850;2023-12-20T10:38:56;7.05;;;1.30;;
32333;SDS011;18810;53.040;8.850;2023-12-20T10:41:31;3.90;;;1.50;;
32333;SDS011;18810;53.040;8.850;2023-12-20T10:44:01;5.45;;;1.77;;
32333;SDS011;18810;53.040;8.850;2023-12-20T10:46:28;6.68;;;1.73;;
32333;SDS011;18810;53.040;8.850;2023-12-20T10:48:55;9.07;;;2.10;;
32333;SDS011;18810;53.040;8.850;2023-12-20T10:51:23;5.47;;;1.77;;
32333;SDS011;18810;53.040;8.850;2023-12-20T10:53:55;6.93;;;1.80;;
32333;SDS011;18810;53.040;8.850;2023-12-20T10:56:21;4.50;;;1.60;;
32333;SDS011;18810;53.040;8.850;2023-12-20T10:58:48;7.95;;;1.45;;
32333;SDS011;18810;53.040;8.850;2023-12-20T11:01:15;6.82;;;1.80;;
32333;SDS011;18810;53.040;8.850;2023-12-20T11:03:49;5.32;;;1.40;;
32333;SDS011;18810;53.040;8.850;2023-12-20T11:06:29;6.60;;;1.58;;
32333;SDS011;18810;53.040;8.850;2023-12-20T11:14:49;7.82;;;1.60;;
32333;SDS011;18810;53.040;8.850;2023-12-20T11:17:17;9.23;;;2.05;;
32333;SDS011;18810;53.040;8.850;2023-12-20T11:22:20;8.32;;;1.50;;
32333;SDS011;18810;53.040;8.850;2023-12-20T11:24:48;6.90;;;2.05;;
32333;SDS011;18810;53.040;8.850;2023-12-20T11:27:16;10.25;;;1.77;;
32333;SDS011;18810;53.040;8.850;2023-12-20T11:29:50;7.80;;;2.15;;
32333;SDS011;18810;53.040;8.850;2023-12-20T11:40:00;10.77;;;1.98;;
32333;SDS011;18810;53.040;8.850;2023-12-20T11:42:32;9.60;;;1.77;;
32333;SDS011;18810;53.040;8.850;2023-12-20T11:45:05;10.68;;;3.22;;
32333;SDS011;18810;53.040;8.850;2023-12-20T11:47:50;9.30;;;1.83;;
32333;SDS011;18810;53.040;8.850;2023-12-20T11:50:16;10.38;;;2.17;;
32333;SDS011;18810;53.040;8.850;2023-12-20T11:52:42;8.10;;;2.30;;
32333;SDS011;18810;53.040;8.850;2023-12-20T11:55:08;7.75;;;1.80;;
32333;SDS011;18810;53.040;8.850;2023-12-20T11:57:35;16.48;;;2.75;;
32333;SDS011;18810;53.040;8.850;2023-12-20T12:00:01;9.82;;;2.40;;
32333;SDS011;18810;53.040;8.850;2023-12-20T12:02:28;11.10;;;2.22;;
32333;SDS011;18810;53.040;8.850;2023-12-20T12:04:53;12.27;;;2.53;;
32333;SDS011;18810;53.040;8.850;2023-12-20T12:07:21;17.40;;;3.70;;
32333;SDS011;18810;53.040;8.850;2023-12-20T12:09:47;18.20;;;2.70;;
32333;SDS011;18810;53.040;8.850;2023-12-20T12:12:13;14.23;;;2.58;;
32333;SDS011;18810;53.040;8.850;2023-12-20T12:14:39;10.55;;;2.70;;
32333;SDS011;18810;53.040;8.850;2023-12-20T12:17:11;14.02;;;3.20;;
32333;SDS011;18810;53.040;8.850;2023-12-20T12:19:38;11.90;;;3.33;;
32333;SDS011;18810;53.040;8.850;2023-12-20T12:22:07;13.57;;;3.17;;
32333;SDS011;18810;53.040;8.850;2023-12-20T12:24:38;13.68;;;2.38;;
32333;SDS011;18810;53.040;8.850;2023-12-20T12:27:07;6.90;;;2.30;;
32333;SDS011;18810;53.040;8.850;2023-12-20T12:29:34;12.40;;;2.28;;
32333;SDS011;18810;53.040;8.850;2023-12-20T12:32:00;15.57;;;2.30;;
32333;SDS011;18810;53.040;8.850;2023-12-20T12:34:29;11.57;;;3.38;;
32333;SDS011;18810;53.040;8.850;2023-12-20T12:36:55;9.55;;;2.38;;
32333;SDS011;18810;53.040;8.850;2023-12-20T12:39:22;15.60;;;3.55;;
32333;SDS011;18810;53.040;8.850;2023-12-20T12:41:50;8.93;;;2.75;;
32333;SDS011;18810;53.040;8.850;2023-12-20T12:44:16;14.65;;;3.13;;
32333;SDS011;18810;53.040;8.850;2023-12-20T12:46:43;14.77;;;3.10;;
32333;SDS011;18810;53.040;8.850;2023-12-20T12:49:10;15.48;;;2.90;;
32333;SDS011;18810;53.040;8.850;2023-12-20T12:51:35;10.48;;;3.25;;
32333;SDS011;18810;53.040;8.850;2023-12-20T12:54:01;12.00;;;3.67;;
32333;SDS011;18810;53.040;8.850;2023-12-20T12:56:27;17.63;;;3.75;;
32333;SDS011;18810;53.040;8.850;2023-12-20T12:58:53;21.00;;;3.22;;
32333;SDS011;18810;53.040;8.850;2023-12-20T13:01:18;14.93;;;3.03;;
32333;SDS011;18810;53.040;8.850;2023-12-20T13:03:44;19.17;;;3.20;;
32333;SDS011;18810;53.040;8.850;2023-12-20T13:06:10;15.80;;;3.22;;
32333;SDS011;18810;53.040;8.850;2023-12-20T13:08:35;14.38;;;3.30;;
32333;SDS011;18810;53.040;8.850;2023-12-20T13:11:01;8.82;;;2.88;;
32333;SDS011;18810;53.040;8.850;2023-12-20T13:13:29;15.93;;;3.00;;
32333;SDS011;18810;53.040;8.850;2023-12-20T13:15:55;19.58;;;3.22;;
32333;SDS011;18810;53.040;8.850;2023-12-20T13:18:22;20.15;;;3.65;;
32333;SDS011;18810;53.040;8.850;2023-12-20T13:20:48;17.25;;;3.20;;
32333;SDS011;18810;53.040;8.850;2023-12-20T13:23:14;16.73;;;2.83;;
32333;SDS011;18810;53.040;8.850;2023-12-20T13:25:40;18.83;;;2.88;;
32333;SDS011;18810;53.040;8.850;2023-12-20T13:28:06;11.32;;;3.00;;
32333;SDS011;18810;53.040;8.850;2023-12-20T13:30:33;12.43;;;2.85;;
32333;SDS011;18810;53.040;8.850;2023-12-20T13:32:59;13.60;;;2.97;;
32333;SDS011;18810;53.040;8.850;2023-12-20T13:35:25;16.33;;;3.08;;
32333;SDS011;18810;53.040;8.850;2023-12-20T13:37:50;16.48;;;2.97;;
32333;SDS011;18810;53.040;8.850;2023-12-20T13:40:16;18.65;;;2.95;;
32333;SDS011;18810;53.040;8.850;2023-12-20T13:42:43;18.05;;;2.92;;
32333;SDS011;18810;53.040;8.850;2023-12-20T13:45:08;17.85;;;3.30;;
32333;SDS011;18810;53.040;8.850;2023-12-20T13:47:34;14.57;;;3.35;;
32333;SDS011;18810;53.040;8.850;2023-12-20T13:50:00;19.98;;;3.63;;
32333;SDS011;18810;53.040;8.850;2023-12-20T13:52:27;16.90;;;3.63;;
32333;SDS011;18810;53.040;8.850;2023-12-20T13:54:53;12.10;;;3.17;;
32333;SDS011;18810;53.040;8.850;2023-12-20T13:57:19;16.45;;;3.60;;
32333;SDS011;18810;53.040;8.850;2023-12-20T13:59:45;11.88;;;3.10;;
32333;SDS011;18810;53.040;8.850;2023-12-20T14:02:10;17.10;;;3.67;;
32333;SDS011;18810;53.040;8.850;2023-12-20T14:04:36;7.82;;;2.75;;
32333;SDS011;18810;53.040;8.850;2023-12-20T14:07:03;15.52;;;4.07;;
32333;SDS011;18810;53.040;8.850;2023-12-20T14:09:30;14.50;;;3.63;;
32333;SDS011;18810;53.040;8.850;2023-12-20T14:11:55;16.95;;;3.00;;
32333;SDS011;18810;53.040;8.850;2023-12-20T14:14:22;27.58;;;3.67;;
32333;SDS011;18810;53.040;8.850;2023-12-20T14:16:47;16.35;;;3.95;;
32333;SDS011;18810;53.040;8.850;2023-12-20T14:19:13;18.90;;;3.20;;
32333;SDS011;18810;53.040;8.850;2023-12-20T14:21:39;15.60;;;3.17;;
32333;SDS011;18810;53.040;8.850;2023-12-20T14:24:04;18.10;;;3.35;;
32333;SDS011;18810;53.040;8.850;2023-12-20T14:26:30;16.92;;;3.10;;
32333;SDS011;18810;53.040;8.850;2023-12-20T14:28:56;15.27;;;2.88;;
32333;SDS011;18810;53.040;8.850;2023-12-20T14:31:22;14.90;;;3.80;;
32333;SDS011;18810;53.040;8.850;2023-12-20T14:33:49;15.25;;;3.78;;
32333;SDS011;18810;53.040;8.850;2023-12-20T14:36:16;23.00;;;3.97;;
32333;SDS011;18810;53.040;8.850;2023-12-20T14:38:43;13.43;;;2.97;;
32333;SDS011;18810;53.040;8.850;2023-12-20T14:41:09;13.75;;;3.20;;
32333;SDS011;18810;53.040;8.850;2023-12-20T14:43:34;13.68;;;3.05;;
32333;SDS011;18810;53.040;8.850;2023-12-20T14:46:00;20.10;;;3.45;;
32333;SDS011;18810;53.040;8.850;2023-12-20T14:48:26;18.20;;;3.58;;